WHISKEYTOWN DAM (USBR) (WHI)

Elevation: 1210' · SACRAMENTO R basin · Operator: US Bureau of Reclamation

Provisional data, subject to change.
Query executed Wednesday at 11:45:03   clock

Select a sensor type for a plot of data.
Note: Reservoir Flows are daily averages.

Earlier

Date RES ELE    STORAGE    RES CHG    OUTFLOW    INFLOW    EVAP    RIV REL    PPT INC    RAIN    SPILL    DIS PWR   
 FEET   AF   AF   CFS   CFS   CFS   CFS   INCHES   INCHES   CFS   CFS  
08/29/2016 1208.60 236624 -159 563 505 22 159 0.00 63.78 0 404
08/30/2016 1208.54 236433 -191 542 467 21 159 0.00 63.78 0 383
08/31/2016 1208.58 236560 127 487 574 23 159 0.00 63.78 0 328
09/01/2016 1208.64 236751 191 487 605 22 158 0.00 63.78 0 329
09/02/2016 1208.56 236497 -254 561 454 21 158 0.00 63.78 0 403
09/03/2016 1208.58 236560 63 408 460 20 158 0.00 63.78 0 250
09/04/2016 1208.61 236656 96 407 477 22 158 0.00 63.78 0 249
09/05/2016 1208.87 237482 826 172 610 22 158 0.00 63.78 0 14
09/06/2016 1208.88 237514 32 482 519 21 154 0.00 63.78 0 328
09/07/2016 1209.16 238407 893 165 637 22 151 0.00 63.78 0 14
09/08/2016 1208.96 237768 -639 715 416 23 151 0.00 63.78 0 564
09/09/2016 1208.90 237577 -191 711 637 22 151 0.00 63.78 0 560
09/10/2016 1208.96 237768 191 458 575 21 151 0.00 63.78 0 307
09/11/2016 1208.91 237609 -159 556 504 28 151 0.00 63.78 0 405
09/12/2016 1209.04 238023 414 634 864 21 151 0.00 63.78 0 483
09/13/2016 1208.98 237831 -192 634 556 19 151 0.00 63.78 0 483
09/14/2016 1208.91 237609 -222 557 463 18 152 0.00 63.78 0 405
09/15/2016 1208.81 237291 -318 562 416 14 152 0.00 63.78 0 410
09/16/2016 1208.83 237355 64 435 482 15 162 0.00 63.78 0 273
09/17/2016 1208.98 237831 476 183 444 21 169 0.00 63.78 0 14
09/18/2016 1208.83 237355 -476 695 473 18 170 0.00 63.78 0 525
09/19/2016 1208.68 236878 -- 687 465 18 192 0.00 63.78 0 495
09/20/2016 1208.71 236973 95 569 637 20 221 0.00 63.78 0 348
09/21/2016 1208.74 237069 96 415 482 19 230 0.00 63.78 0 185
09/22/2016 1208.78 237196 127 593 678 21 231 0.00 63.78 0 362
09/23/2016 1208.95 237736 540 264 547 11 243 0.00 63.78 0 21
09/24/2016 1208.96 237768 32 575 598 7 255 0.00 63.78 0 320
09/25/2016 1209.05 238055 287 482 645 18 268 0.00 63.78 0 214
09/26/2016 1208.97 237800 -255 869 752 12 282 0.00 63.78 0 587
09/27/2016 1208.99 237863 63 1075 1129 22 282 0.00 63.78 0 793
09/28/2016 -- -- -- -- -- -- -- -- -- -- --

Later | Latest

Warning! This data is preliminary and subject to revision.

Show WHI Map | Plot WHI Data | 1 Month WHI Data | Real-Time WHI Data | WHI Info